createdAt,value
2022-12-25T00:00:46.070Z,6.5
2022-12-25T00:02:00.203Z,6.5
2022-12-25T00:03:14.461Z,6.5
2022-12-25T00:04:28.526Z,6.5
2022-12-25T00:05:42.580Z,6.4
2022-12-25T00:07:04.988Z,6.4
2022-12-25T00:09:24.525Z,6.4
2022-12-25T00:10:34.765Z,6.4
2022-12-25T00:11:44.908Z,6.3
2022-12-25T00:12:55.182Z,6.3
2022-12-25T00:14:05.470Z,6.2
2022-12-25T00:15:15.724Z,6.1
2022-12-25T00:16:25.961Z,6
2022-12-25T00:17:36.211Z,5.9
2022-12-25T00:18:46.384Z,5.9
2022-12-25T00:19:56.743Z,5.8
2022-12-25T00:21:06.904Z,5.7
2022-12-25T00:22:17.186Z,5.6
2022-12-25T00:23:27.423Z,5.5
2022-12-25T00:24:37.684Z,5.4
2022-12-25T00:25:47.856Z,5.3
2022-12-25T00:26:58.122Z,5.3
2022-12-25T00:28:08.419Z,5.2
2022-12-25T00:29:18.648Z,5.1
2022-12-25T00:30:28.906Z,5.1
2022-12-25T00:31:39.164Z,5
2022-12-25T00:32:49.348Z,5
2022-12-25T00:33:59.641Z,4.9
2022-12-25T00:35:09.851Z,4.9
2022-12-25T00:36:20.086Z,4.9
2022-12-25T00:37:30.321Z,4.8
2022-12-25T00:38:40.762Z,4.8
2022-12-25T00:39:51.241Z,4.8
2022-12-25T00:41:01.622Z,4.8
2022-12-25T00:42:12.130Z,4.8
2022-12-25T00:43:22.524Z,4.8
2022-12-25T00:44:32.943Z,4.9
2022-12-25T00:45:43.343Z,4.9
2022-12-25T00:46:53.834Z,4.9
2022-12-25T00:48:04.257Z,4.9
2022-12-25T00:49:14.648Z,4.9
2022-12-25T00:50:25.069Z,4.9
2022-12-25T00:51:35.553Z,4.9
2022-12-25T00:52:45.941Z,4.9
2022-12-25T00:55:25.724Z,4.9
2022-12-25T00:56:36.511Z,4.8
2022-12-25T00:57:50.651Z,4.8
2022-12-25T00:59:04.702Z,4.8
2022-12-25T01:00:18.827Z,4.8
2022-12-25T01:01:32.975Z,4.8
2022-12-25T01:02:47.081Z,4.8
2022-12-25T01:04:01.294Z,4.8
2022-12-25T01:05:15.375Z,4.8
2022-12-25T01:06:29.494Z,4.8
2022-12-25T01:07:43.602Z,4.8
2022-12-25T01:08:54.491Z,4.7
2022-12-25T01:10:05.269Z,4.7
2022-12-25T01:13:48.343Z,4.7
2022-12-25T01:16:15.945Z,4.7
2022-12-25T01:17:38.189Z,4.7
2022-12-25T01:18:52.303Z,4.6
2022-12-25T01:20:06.545Z,4.6
2022-12-25T01:21:17.292Z,4.6
2022-12-25T01:22:28.061Z,4.6
2022-12-25T01:23:42.159Z,4.6
2022-12-25T01:24:56.288Z,4.6
2022-12-25T01:26:09.824Z,4.6
2022-12-25T01:27:19.962Z,4.6
2022-12-25T01:28:30.158Z,4.6
2022-12-25T01:29:40.253Z,4.6
2022-12-25T01:30:50.446Z,4.6
2022-12-25T01:32:00.657Z,4.6
2022-12-25T01:33:10.765Z,4.6
2022-12-25T01:34:20.931Z,4.6
2022-12-25T01:35:31.076Z,4.6
2022-12-25T01:36:41.233Z,4.6
2022-12-25T01:37:51.397Z,4.6
2022-12-25T01:39:01.584Z,4.6
2022-12-25T01:40:11.746Z,4.6
2022-12-25T01:41:21.911Z,4.6
2022-12-25T01:42:32.073Z,4.6
2022-12-25T01:43:42.212Z,4.6
2022-12-25T01:44:52.445Z,4.7
2022-12-25T01:46:02.598Z,4.7
2022-12-25T01:47:12.761Z,4.7
2022-12-25T01:48:23.070Z,4.6
2022-12-25T01:49:33.084Z,4.6
2022-12-25T01:50:43.198Z,4.7
2022-12-25T01:51:53.378Z,4.7
2022-12-25T01:53:03.595Z,4.7
2022-12-25T01:54:13.761Z,4.7
2022-12-25T01:55:23.952Z,4.7
2022-12-25T01:56:34.228Z,4.7
2022-12-25T01:57:44.419Z,4.7
2022-12-25T01:58:54.689Z,4.8
2022-12-25T02:00:04.929Z,4.9
2022-12-25T02:01:15.230Z,4.9
2022-12-25T02:02:25.471Z,4.9
2022-12-25T02:03:35.654Z,4.9
2022-12-25T02:04:45.892Z,4.9
2022-12-25T02:05:56.190Z,4.9
2022-12-25T02:07:06.453Z,4.9
2022-12-25T02:08:16.699Z,4.9
2022-12-25T02:09:26.922Z,4.9
2022-12-25T02:11:47.737Z,4.9
2022-12-25T02:12:58.252Z,5
2022-12-25T02:14:08.606Z,5
2022-12-25T02:15:19.052Z,5.1
2022-12-25T02:16:29.474Z,5.2
2022-12-25T02:17:39.891Z,5.2
2022-12-25T02:18:50.331Z,5.3
2022-12-25T02:20:00.832Z,5.3
2022-12-25T02:21:11.281Z,5.3
2022-12-25T02:22:21.641Z,5.4
2022-12-25T02:23:32.128Z,5.4
2022-12-25T02:24:42.481Z,5.4
2022-12-25T02:27:21.262Z,5.4
2022-12-25T02:28:35.432Z,5.5
2022-12-25T02:29:49.463Z,5.5
2022-12-25T02:31:00.342Z,5.5
2022-12-25T02:32:11.083Z,5.5
2022-12-25T02:33:25.275Z,5.5
2022-12-25T02:34:39.360Z,5.5
2022-12-25T02:35:53.467Z,5.5
2022-12-25T02:37:07.049Z,5.5
2022-12-25T02:38:17.186Z,5.5
2022-12-25T02:39:27.263Z,5.5
2022-12-25T02:40:37.531Z,5.5
2022-12-25T02:41:47.594Z,5.5
2022-12-25T02:42:57.833Z,5.5
2022-12-25T02:44:08.000Z,5.5
2022-12-25T02:46:28.322Z,5.5
2022-12-25T02:47:38.434Z,5.5
2022-12-25T02:48:48.556Z,5.5
2022-12-25T02:49:58.754Z,5.5
2022-12-25T02:51:08.919Z,5.5
2022-12-25T02:52:19.087Z,5.5
2022-12-25T02:53:29.250Z,5.5
2022-12-25T02:54:39.426Z,5.6
2022-12-25T02:55:49.548Z,5.6
2022-12-25T02:56:59.777Z,5.6
2022-12-25T02:58:09.931Z,5.6
2022-12-25T02:59:20.047Z,5.6
2022-12-25T03:00:30.271Z,5.6
2022-12-25T03:01:40.365Z,5.6
2022-12-25T03:02:50.590Z,5.6
2022-12-25T03:04:00.712Z,5.6
2022-12-25T03:05:10.871Z,5.6
2022-12-25T03:06:21.110Z,5.6
2022-12-25T03:07:31.350Z,5.5
2022-12-25T03:08:41.585Z,5.5
2022-12-25T03:09:51.850Z,5.5
2022-12-25T03:11:02.193Z,5.4
2022-12-25T03:12:12.431Z,5.4
2022-12-25T03:13:22.590Z,5.4
2022-12-25T03:14:32.831Z,5.4
2022-12-25T03:15:43.058Z,5.4
2022-12-25T03:16:53.327Z,5.4
2022-12-25T03:18:03.609Z,5.3
2022-12-25T03:19:13.827Z,5.3
2022-12-25T03:20:24.065Z,5.3
2022-12-25T03:22:05.099Z,5.3
2022-12-25T03:23:15.587Z,5.3
2022-12-25T03:24:26.016Z,5.3
2022-12-25T03:25:36.392Z,5.3
2022-12-25T03:26:46.801Z,5.3
2022-12-25T03:27:57.307Z,5.2
2022-12-25T03:29:07.739Z,5.2
2022-12-25T03:30:18.127Z,5.2
2022-12-25T03:31:28.587Z,5.2
2022-12-25T03:32:38.989Z,5.2
2022-12-25T03:33:49.393Z,5.2
2022-12-25T03:34:59.890Z,5.2
2022-12-25T03:36:10.323Z,5.2
2022-12-25T03:37:21.122Z,5.2
2022-12-25T03:38:35.284Z,5.1
2022-12-25T03:39:49.322Z,5.1
2022-12-25T03:41:03.526Z,5.1
2022-12-25T03:42:17.579Z,5.1
2022-12-25T03:43:31.781Z,5.1
2022-12-25T03:44:45.820Z,5.1
2022-12-25T03:46:00.040Z,5.1
2022-12-25T03:47:14.120Z,5.1
2022-12-25T03:48:29.588Z,5.1
2022-12-25T03:49:42.332Z,5.1
2022-12-25T03:50:57.831Z,5.1
2022-12-25T03:52:11.976Z,5.1
2022-12-25T03:55:55.016Z,5.1
2022-12-25T03:58:22.246Z,5
2022-12-25T03:59:31.016Z,4.9
2022-12-25T04:00:41.187Z,4.9
2022-12-25T04:01:52.768Z,4.9
2022-12-25T04:03:01.661Z,4.8
2022-12-25T04:04:11.953Z,4.8
2022-12-25T04:05:22.816Z,4.8
2022-12-25T04:06:32.429Z,4.8
2022-12-25T04:07:42.660Z,4.8
2022-12-25T04:08:52.989Z,4.7
2022-12-25T04:10:03.162Z,4.7
2022-12-25T04:11:13.543Z,4.7
2022-12-25T04:12:23.702Z,4.7
2022-12-25T04:13:33.967Z,4.7
2022-12-25T04:14:44.134Z,4.7
2022-12-25T04:15:54.380Z,4.7
2022-12-25T04:17:04.684Z,4.7
2022-12-25T04:18:14.904Z,4.7
2022-12-25T04:19:25.155Z,4.7
2022-12-25T04:20:35.383Z,4.7
2022-12-25T04:21:45.604Z,4.7
2022-12-25T04:22:55.909Z,4.7
2022-12-25T04:24:06.118Z,4.7
2022-12-25T04:25:16.419Z,4.7
2022-12-25T04:26:26.665Z,4.7
2022-12-25T04:27:37.028Z,4.7
2022-12-25T04:28:47.463Z,4.7
2022-12-25T04:29:57.894Z,4.7
2022-12-25T04:31:08.336Z,4.6
2022-12-25T04:32:18.841Z,4.6
2022-12-25T04:33:29.235Z,4.6
2022-12-25T04:34:39.608Z,4.6
2022-12-25T04:35:50.053Z,4.6
2022-12-25T04:37:00.492Z,4.6
2022-12-25T04:38:10.920Z,4.6
2022-12-25T04:39:21.332Z,4.6
2022-12-25T04:40:31.784Z,4.5
2022-12-25T04:41:42.194Z,4.5
2022-12-25T04:44:21.941Z,4.5
2022-12-25T04:45:32.736Z,4.4
2022-12-25T04:46:46.842Z,4.4
2022-12-25T04:48:01.077Z,4.4
2022-12-25T04:49:15.121Z,4.4
2022-12-25T04:50:29.302Z,4.3
2022-12-25T04:51:43.370Z,4.3
2022-12-25T04:52:57.513Z,4.2
2022-12-25T04:54:11.634Z,4.2
2022-12-25T04:55:25.806Z,4.2
2022-12-25T04:56:39.868Z,4.1
2022-12-25T04:57:50.753Z,4.1
2022-12-25T04:59:00.505Z,4.1
2022-12-25T05:00:10.696Z,4.1
2022-12-25T05:01:20.828Z,4.1
2022-12-25T05:02:31.026Z,4
2022-12-25T05:03:41.135Z,4
2022-12-25T05:04:51.389Z,4
2022-12-25T05:06:01.521Z,4
2022-12-25T05:07:11.621Z,4
2022-12-25T05:08:21.800Z,4
2022-12-25T05:09:31.971Z,4
2022-12-25T05:10:42.113Z,4
2022-12-25T05:11:52.275Z,4
2022-12-25T05:13:02.512Z,4
2022-12-25T05:14:12.599Z,4
2022-12-25T05:15:22.867Z,4
2022-12-25T05:17:43.089Z,4
2022-12-25T05:18:53.269Z,4
2022-12-25T05:20:03.488Z,4
2022-12-25T05:21:13.646Z,4
2022-12-25T05:22:23.808Z,4
2022-12-25T05:23:33.972Z,4.1
2022-12-25T05:24:44.072Z,4.1
2022-12-25T05:25:54.277Z,4.1
2022-12-25T05:27:04.437Z,4.1
2022-12-25T05:28:14.661Z,4.2
2022-12-25T05:29:24.915Z,4.2
2022-12-25T05:30:35.214Z,4.2
2022-12-25T05:31:45.378Z,4.2
2022-12-25T05:32:55.697Z,4.2
2022-12-25T05:34:05.878Z,4.2
2022-12-25T05:35:16.208Z,4.3
2022-12-25T05:36:26.386Z,4.3
2022-12-25T05:37:36.746Z,4.3
2022-12-25T05:38:46.860Z,4.3
2022-12-25T05:39:57.183Z,4.3
2022-12-25T05:41:07.414Z,4.4
2022-12-25T05:42:17.677Z,4.4
2022-12-25T05:43:28.047Z,4.4
2022-12-25T05:44:38.534Z,4.4
2022-12-25T05:45:48.895Z,4.5
2022-12-25T05:46:59.337Z,4.5
2022-12-25T05:48:09.756Z,4.5
2022-12-25T05:49:20.217Z,4.5
2022-12-25T05:50:30.717Z,4.5
2022-12-25T05:51:41.047Z,4.6
2022-12-25T05:52:51.557Z,4.6
2022-12-25T05:54:01.978Z,4.6
2022-12-25T05:55:12.490Z,4.7
2022-12-25T05:56:22.838Z,4.7
2022-12-25T05:57:33.274Z,4.7
2022-12-25T06:00:11.472Z,4.7
2022-12-25T06:01:25.654Z,4.8
2022-12-25T06:02:39.134Z,4.9
2022-12-25T06:03:49.224Z,4.9
2022-12-25T06:04:59.394Z,4.9
2022-12-25T06:06:09.575Z,5
2022-12-25T06:07:19.796Z,5
2022-12-25T06:08:29.903Z,5
2022-12-25T06:09:40.038Z,5
2022-12-25T06:10:50.237Z,5
2022-12-25T06:12:00.424Z,5
2022-12-25T06:13:10.539Z,5
2022-12-25T06:14:20.706Z,5
2022-12-25T06:15:30.920Z,5.1
2022-12-25T06:16:41.021Z,5.1
2022-12-25T06:17:51.187Z,5.1
2022-12-25T06:19:01.372Z,5
2022-12-25T06:20:11.531Z,5.1
2022-12-25T06:21:21.687Z,5.1
2022-12-25T06:22:31.851Z,5.1
2022-12-25T06:23:42.000Z,5.1
2022-12-25T06:24:52.219Z,5.1
2022-12-25T06:26:02.412Z,5.1
2022-12-25T06:27:12.512Z,5.1
2022-12-25T06:28:22.659Z,5.1
2022-12-25T06:29:32.899Z,5.1
2022-12-25T06:30:42.979Z,5.1
2022-12-25T06:31:53.260Z,5.1
2022-12-25T06:33:03.519Z,5.1
2022-12-25T06:34:13.735Z,5.1
2022-12-25T06:35:23.977Z,5.1
2022-12-25T06:36:34.221Z,5
2022-12-25T06:37:44.457Z,5
2022-12-25T06:38:54.760Z,5.1
2022-12-25T06:40:04.957Z,5.1
2022-12-25T06:41:15.260Z,5.1
2022-12-25T06:42:25.477Z,5.1
2022-12-25T06:43:35.737Z,5.1
2022-12-25T06:44:45.926Z,5.1
2022-12-25T06:45:56.229Z,5.1
2022-12-25T06:47:06.709Z,5.1
2022-12-25T06:48:17.107Z,5.1
2022-12-25T06:49:27.472Z,5.1
2022-12-25T06:50:37.995Z,5.1
2022-12-25T06:51:48.327Z,5.1
2022-12-25T06:52:58.782Z,5.1
2022-12-25T06:54:09.197Z,5.1
2022-12-25T06:55:19.640Z,5.1
2022-12-25T06:56:30.110Z,5.2
2022-12-25T06:57:40.486Z,5.2
2022-12-25T06:58:50.999Z,5.1
2022-12-25T07:00:01.352Z,5.2
2022-12-25T07:01:11.836Z,5.2
2022-12-25T07:03:49.810Z,5.2
2022-12-25T07:05:03.962Z,5.2
2022-12-25T07:06:18.106Z,5.2
2022-12-25T07:07:28.894Z,5.2
2022-12-25T07:08:39.676Z,5.2
2022-12-25T07:09:53.876Z,5.2
2022-12-25T07:11:07.955Z,5.3
2022-12-25T07:12:22.084Z,5.3
2022-12-25T07:13:36.245Z,5.3
2022-12-25T07:14:50.338Z,5.3
2022-12-25T07:16:04.475Z,5.3
2022-12-25T07:17:17.957Z,5.3
2022-12-25T07:18:28.166Z,5.3
2022-12-25T07:19:38.267Z,5.2
2022-12-25T07:20:48.416Z,5.2
2022-12-25T07:21:58.587Z,5.2
2022-12-25T07:23:08.808Z,5.2
2022-12-25T07:24:18.927Z,5.2
2022-12-25T07:25:29.191Z,5.1
2022-12-25T07:26:39.304Z,5.1
2022-12-25T07:27:49.400Z,5.2
2022-12-25T07:28:59.694Z,5.2
2022-12-25T07:30:09.735Z,5.2
2022-12-25T07:31:19.987Z,5.2
2022-12-25T07:32:30.060Z,5.2
2022-12-25T07:33:40.211Z,5.2
2022-12-25T07:34:50.370Z,5.2
2022-12-25T07:36:00.594Z,5.2
2022-12-25T07:37:10.757Z,5.2
2022-12-25T07:38:20.960Z,5.2
2022-12-25T07:39:31.023Z,5.2
2022-12-25T07:40:41.189Z,5.3
2022-12-25T07:41:51.358Z,5.2
2022-12-25T07:43:01.592Z,5.3
2022-12-25T07:44:11.743Z,5.3
2022-12-25T07:45:21.913Z,5.3
2022-12-25T07:46:32.152Z,5.3
2022-12-25T07:47:42.338Z,5.3
2022-12-25T07:48:52.610Z,5.3
2022-12-25T07:50:02.855Z,5.3
2022-12-25T07:51:13.093Z,5.3
2022-12-25T07:52:23.330Z,5.3
2022-12-25T07:53:33.702Z,5.3
2022-12-25T07:54:43.807Z,5.4
2022-12-25T07:55:54.129Z,5.4
2022-12-25T07:57:04.308Z,5.4
2022-12-25T07:58:14.607Z,5.4
2022-12-25T07:59:24.833Z,5.4
2022-12-25T08:00:35.061Z,5.4
2022-12-25T08:02:16.130Z,5.4
2022-12-25T08:03:26.608Z,5.4
2022-12-25T08:04:36.962Z,5.4
2022-12-25T08:05:47.364Z,5.4
2022-12-25T08:06:57.804Z,5.4
2022-12-25T08:08:08.302Z,5.4
2022-12-25T08:09:18.696Z,5.4
2022-12-25T08:10:29.160Z,5.4
2022-12-25T08:11:39.522Z,5.5
2022-12-25T08:12:49.953Z,5.5
2022-12-25T08:14:00.439Z,5.5
2022-12-25T08:15:10.848Z,5.5
2022-12-25T08:16:21.317Z,5.5
2022-12-25T08:17:32.118Z,5.5
2022-12-25T08:18:46.184Z,5.5
2022-12-25T08:20:00.321Z,5.5
2022-12-25T08:21:14.540Z,5.5
2022-12-25T08:22:28.625Z,5.5
2022-12-25T08:23:42.695Z,5.5
2022-12-25T08:24:56.839Z,5.6
2022-12-25T08:26:10.951Z,5.6
2022-12-25T08:27:25.153Z,5.6
2022-12-25T08:28:39.226Z,5.6
2022-12-25T08:29:53.370Z,5.6
2022-12-25T08:31:07.467Z,5.6
2022-12-25T08:32:20.956Z,5.6
2022-12-25T08:33:31.150Z,5.6
2022-12-25T08:34:41.285Z,5.6
2022-12-25T08:35:51.466Z,5.6
2022-12-25T08:37:01.623Z,5.7
2022-12-25T08:38:11.779Z,5.7
2022-12-25T08:39:21.948Z,5.7
2022-12-25T08:40:32.103Z,5.7
2022-12-25T08:41:42.261Z,5.7
2022-12-25T08:42:52.434Z,5.7
2022-12-25T08:44:02.593Z,5.7
2022-12-25T08:45:12.831Z,5.7
2022-12-25T08:46:22.931Z,5.7
2022-12-25T08:47:33.201Z,5.7
2022-12-25T08:48:43.234Z,5.7
2022-12-25T08:49:53.458Z,5.7
2022-12-25T08:51:03.582Z,5.8
2022-12-25T08:52:13.743Z,5.8
2022-12-25T08:53:23.898Z,5.8
2022-12-25T08:54:34.053Z,5.8
2022-12-25T08:55:44.217Z,5.8
2022-12-25T08:56:54.403Z,5.8
2022-12-25T08:58:04.565Z,5.8
2022-12-25T08:59:14.724Z,5.9
2022-12-25T09:00:24.885Z,5.9
2022-12-25T09:01:35.148Z,5.9
2022-12-25T09:02:45.356Z,5.9
2022-12-25T09:03:55.672Z,5.9
2022-12-25T09:05:05.862Z,5.9
2022-12-25T09:06:16.106Z,5.9
2022-12-25T09:07:26.405Z,6
2022-12-25T09:08:36.608Z,6
2022-12-25T09:09:46.831Z,6
2022-12-25T09:10:57.202Z,6
2022-12-25T09:12:07.350Z,6
2022-12-25T09:13:17.636Z,6.1
2022-12-25T09:14:27.893Z,6.1
2022-12-25T09:15:38.113Z,6.1
2022-12-25T09:16:48.490Z,6.1
2022-12-25T09:17:58.990Z,6.1
2022-12-25T09:19:09.373Z,6.1
2022-12-25T09:20:19.883Z,6.2
2022-12-25T09:21:30.275Z,6.2
2022-12-25T09:22:40.659Z,6.2
2022-12-25T09:23:51.083Z,6.2
2022-12-25T09:25:01.616Z,6.2
2022-12-25T09:26:12.019Z,6.3
2022-12-25T09:27:22.399Z,6.3
2022-12-25T09:28:32.806Z,6.3
2022-12-25T09:29:43.237Z,6.3
2022-12-25T09:30:53.693Z,6.3
2022-12-25T09:33:32.176Z,6.3
2022-12-25T09:34:46.223Z,6.3
2022-12-25T09:36:00.370Z,6.3
2022-12-25T09:37:10.166Z,6.3
2022-12-25T09:38:20.332Z,6.4
2022-12-25T09:39:30.534Z,6.4
2022-12-25T09:40:40.649Z,6.4
2022-12-25T09:41:50.810Z,6.4
2022-12-25T09:43:01.029Z,6.4
2022-12-25T09:44:11.156Z,6.4
2022-12-25T09:45:21.308Z,6.4
2022-12-25T09:46:31.470Z,6.4
2022-12-25T09:47:41.625Z,6.5
2022-12-25T09:48:51.798Z,6.5
2022-12-25T09:50:01.957Z,6.5
2022-12-25T09:51:12.130Z,6.5
2022-12-25T09:52:22.297Z,6.5
2022-12-25T09:53:32.455Z,6.5
2022-12-25T09:54:42.606Z,6.5
2022-12-25T09:55:52.767Z,6.6
2022-12-25T09:57:02.959Z,6.6
2022-12-25T09:58:13.190Z,6.6
2022-12-25T09:59:23.331Z,6.6
2022-12-25T10:00:33.488Z,6.6
2022-12-25T10:01:43.582Z,6.6
2022-12-25T10:02:53.843Z,6.6
2022-12-25T10:04:03.931Z,6.6
2022-12-25T10:05:14.169Z,6.6
2022-12-25T10:06:24.355Z,6.7
2022-12-25T10:07:34.590Z,6.7
2022-12-25T10:08:44.812Z,6.7
2022-12-25T10:09:55.112Z,6.7
2022-12-25T10:11:05.367Z,6.7
2022-12-25T10:12:15.564Z,6.7
2022-12-25T10:13:25.805Z,6.7
2022-12-25T10:15:46.286Z,6.7
2022-12-25T10:16:56.565Z,6.7
2022-12-25T10:18:06.862Z,6.8
2022-12-25T10:19:17.103Z,6.8
2022-12-25T10:20:27.363Z,6.8
2022-12-25T10:21:37.774Z,6.8
2022-12-25T10:22:48.133Z,6.8
2022-12-25T10:23:58.636Z,6.8
2022-12-25T10:25:09.062Z,6.8
2022-12-25T10:26:19.439Z,6.8
2022-12-25T10:27:29.887Z,6.8
2022-12-25T10:28:40.293Z,6.8
2022-12-25T10:29:50.724Z,6.8
2022-12-25T10:31:01.161Z,6.8
2022-12-25T10:32:11.604Z,6.8
2022-12-25T10:33:22.046Z,6.8
2022-12-25T10:34:32.000Z,6.8
2022-12-25T10:35:42.881Z,6.8
2022-12-25T10:38:22.113Z,6.8
2022-12-25T10:39:36.193Z,6.9
2022-12-25T10:40:50.303Z,6.8
2022-12-25T10:42:01.116Z,6.9
2022-12-25T10:43:11.985Z,6.9
2022-12-25T10:44:26.142Z,6.9
2022-12-25T10:45:40.185Z,6.9
2022-12-25T10:46:54.475Z,6.9
2022-12-25T10:48:08.497Z,6.9
2022-12-25T10:49:22.594Z,6.9
2022-12-25T10:50:36.690Z,6.8
2022-12-25T10:51:50.807Z,6.9
2022-12-25T10:53:05.019Z,6.9
2022-12-25T10:54:27.421Z,6.8
2022-12-25T10:56:48.082Z,6.8
2022-12-25T10:59:15.056Z,6.9
2022-12-25T11:00:25.288Z,6.9
2022-12-25T11:01:35.545Z,6.9
2022-12-25T11:02:45.763Z,6.9
2022-12-25T11:03:56.038Z,6.9
2022-12-25T11:05:06.437Z,6.9
2022-12-25T11:06:16.650Z,6.9
2022-12-25T11:07:26.835Z,6.9
2022-12-25T11:08:37.067Z,6.9
2022-12-25T11:09:47.241Z,6.9
2022-12-25T11:10:57.490Z,6.9
2022-12-25T11:12:07.834Z,6.9
2022-12-25T11:13:18.057Z,6.9
2022-12-25T11:14:28.242Z,6.9
2022-12-25T11:15:38.537Z,6.9
2022-12-25T11:16:48.718Z,6.9
2022-12-25T11:17:58.962Z,6.9
2022-12-25T11:19:09.214Z,6.9
2022-12-25T11:20:19.516Z,6.9
2022-12-25T11:21:29.773Z,6.9
2022-12-25T11:22:39.967Z,6.9
2022-12-25T11:23:50.186Z,7
2022-12-25T11:25:00.458Z,6.9
2022-12-25T11:26:10.757Z,7
2022-12-25T11:27:20.949Z,7
2022-12-25T11:28:31.436Z,7
2022-12-25T11:29:41.798Z,7
2022-12-25T11:30:52.303Z,7
2022-12-25T11:32:02.722Z,7
2022-12-25T11:33:13.100Z,7
2022-12-25T11:34:23.588Z,7
2022-12-25T11:35:34.030Z,7
2022-12-25T11:36:44.376Z,7
2022-12-25T11:37:54.882Z,7.1
2022-12-25T11:39:05.304Z,7.1
2022-12-25T11:40:15.685Z,7.1
2022-12-25T11:41:26.204Z,7.1
2022-12-25T11:42:36.601Z,7.1
2022-12-25T11:45:14.803Z,7.1
2022-12-25T11:46:28.883Z,7.1
2022-12-25T11:47:42.990Z,7.1
2022-12-25T11:48:53.824Z,7.1
2022-12-25T11:50:04.654Z,7.2
2022-12-25T11:51:18.735Z,7.2
2022-12-25T11:52:32.930Z,7.2
2022-12-25T11:53:46.977Z,7.2
2022-12-25T11:55:01.128Z,7.2
2022-12-25T11:56:15.250Z,7.2
2022-12-25T11:57:29.387Z,7.2
2022-12-25T11:58:43.493Z,7.2
2022-12-25T11:59:57.655Z,7.2
2022-12-25T12:01:11.240Z,7.2
2022-12-25T12:02:21.295Z,7.2
2022-12-25T12:03:31.454Z,7.2
2022-12-25T12:04:41.598Z,7.2
2022-12-25T12:05:51.779Z,7.3
2022-12-25T12:07:01.941Z,7.2
2022-12-25T12:08:12.171Z,7.3
2022-12-25T12:09:22.330Z,7.3
2022-12-25T12:10:32.511Z,7.3
2022-12-25T12:11:42.572Z,7.3
2022-12-25T12:12:52.803Z,7.3
2022-12-25T12:14:02.972Z,7.3
2022-12-25T12:15:13.156Z,7.3
2022-12-25T12:16:23.230Z,7.3
2022-12-25T12:17:33.518Z,7.3
2022-12-25T12:18:43.548Z,7.3
2022-12-25T12:19:53.736Z,7.4
2022-12-25T12:21:03.958Z,7.4
2022-12-25T12:22:14.061Z,7.4
2022-12-25T12:23:24.289Z,7.4
2022-12-25T12:24:34.481Z,7.4
2022-12-25T12:25:44.532Z,7.4
2022-12-25T12:26:54.759Z,7.4
2022-12-25T12:28:04.877Z,7.4
2022-12-25T12:29:15.113Z,7.4
2022-12-25T12:30:25.282Z,7.4
2022-12-25T12:31:35.605Z,7.4
2022-12-25T12:32:45.759Z,7.4
2022-12-25T12:33:56.081Z,7.4
2022-12-25T12:35:06.262Z,7.5
2022-12-25T12:36:16.520Z,7.5
2022-12-25T12:37:26.761Z,7.5
2022-12-25T12:38:37.017Z,7.4
2022-12-25T12:39:47.231Z,7.5
2022-12-25T12:40:57.553Z,7.5
2022-12-25T12:42:07.848Z,7.5
2022-12-25T12:43:18.079Z,7.5
2022-12-25T12:44:28.317Z,7.5
2022-12-25T12:46:09.359Z,7.5
2022-12-25T12:47:19.697Z,7.5
2022-12-25T12:48:30.140Z,7.5
2022-12-25T12:49:40.628Z,7.5
2022-12-25T12:50:50.982Z,7.5
2022-12-25T12:52:01.466Z,7.5
2022-12-25T12:53:11.867Z,7.5
2022-12-25T12:54:22.344Z,7.5
2022-12-25T12:55:32.702Z,7.5
2022-12-25T12:56:43.136Z,7.5
2022-12-25T12:57:53.622Z,7.5
2022-12-25T12:59:04.101Z,7.5
2022-12-25T13:00:14.441Z,7.5
2022-12-25T13:01:25.241Z,7.5
2022-12-25T13:02:39.455Z,7.5
2022-12-25T13:03:53.507Z,7.5
2022-12-25T13:05:07.622Z,7.5
2022-12-25T13:06:21.764Z,7.5
2022-12-25T13:07:35.942Z,7.5
2022-12-25T13:08:50.009Z,7.5
2022-12-25T13:10:04.167Z,7.5
2022-12-25T13:11:18.285Z,7.5
2022-12-25T13:12:32.404Z,7.5
2022-12-25T13:13:46.515Z,7.5
2022-12-25T13:15:00.653Z,7.5
2022-12-25T13:16:14.793Z,7.5
2022-12-25T13:19:57.923Z,7.6
2022-12-25T13:22:26.204Z,7.6
2022-12-25T13:24:53.177Z,7.6
2022-12-25T13:26:03.374Z,7.6
2022-12-25T13:27:13.656Z,7.6
2022-12-25T13:28:23.889Z,7.6
2022-12-25T13:29:34.116Z,7.6
2022-12-25T13:30:44.341Z,7.6
2022-12-25T13:31:54.670Z,7.6
2022-12-25T13:33:04.860Z,7.6
2022-12-25T13:34:15.180Z,7.6
2022-12-25T13:35:25.352Z,7.5
2022-12-25T13:36:35.594Z,7.5
2022-12-25T13:37:45.819Z,7.5
2022-12-25T13:38:56.099Z,7.5
2022-12-25T13:40:06.364Z,7.5
2022-12-25T13:41:16.581Z,7.5
2022-12-25T13:42:26.822Z,7.5
2022-12-25T13:43:37.059Z,7.5
2022-12-25T13:44:47.296Z,7.5
2022-12-25T13:45:57.617Z,7.5
2022-12-25T13:47:07.879Z,7.5
2022-12-25T13:48:18.058Z,7.5
2022-12-25T13:49:28.298Z,7.5
2022-12-25T13:50:38.540Z,7.5
2022-12-25T13:51:48.764Z,7.5
2022-12-25T13:52:59.098Z,7.4
2022-12-25T13:54:09.520Z,7.5
2022-12-25T13:55:19.900Z,7.4
2022-12-25T13:56:30.311Z,7.4
2022-12-25T13:57:40.816Z,7.4
2022-12-25T13:58:51.174Z,7.4
2022-12-25T14:00:01.623Z,7.4
2022-12-25T14:01:12.092Z,7.4
2022-12-25T14:02:22.466Z,7.4
2022-12-25T14:03:32.908Z,7.4
2022-12-25T14:04:43.322Z,7.4
2022-12-25T14:05:53.775Z,7.4
2022-12-25T14:07:04.208Z,7.4
2022-12-25T14:08:14.625Z,7.3
2022-12-25T14:10:54.340Z,7.3
2022-12-25T14:12:08.480Z,7.3
2022-12-25T14:13:22.583Z,7.3
2022-12-25T14:14:33.345Z,7.3
2022-12-25T14:15:44.130Z,7.3
2022-12-25T14:16:58.284Z,7.3
2022-12-25T14:18:12.465Z,7.3
2022-12-25T14:19:26.572Z,7.3
2022-12-25T14:20:40.645Z,7.3
2022-12-25T14:21:54.783Z,7.3
2022-12-25T14:23:08.958Z,7.3
2022-12-25T14:24:23.145Z,7.3
2022-12-25T14:25:37.224Z,7.3
2022-12-25T14:26:59.578Z,7.3
2022-12-25T14:29:19.016Z,7.3
2022-12-25T14:30:29.266Z,7.2
2022-12-25T14:31:39.556Z,7.2
2022-12-25T14:32:49.730Z,7.2
2022-12-25T14:34:00.046Z,7.2
2022-12-25T14:35:10.288Z,7.2
2022-12-25T14:36:20.488Z,7.2
2022-12-25T14:37:30.717Z,7.2
2022-12-25T14:38:40.978Z,7.2
2022-12-25T14:39:51.207Z,7.2
2022-12-25T14:41:01.533Z,7.2
2022-12-25T14:42:11.773Z,7.2
2022-12-25T14:43:22.037Z,7.2
2022-12-25T14:44:32.278Z,7.2
2022-12-25T14:45:42.436Z,7.2
2022-12-25T14:46:52.746Z,7.2
2022-12-25T14:48:02.986Z,7.2
2022-12-25T14:49:13.189Z,7.2
2022-12-25T14:50:23.534Z,7.2
2022-12-25T14:51:33.681Z,7.2
2022-12-25T14:52:43.905Z,7.2
2022-12-25T14:53:54.237Z,7.2
2022-12-25T14:55:04.465Z,7.2
2022-12-25T14:56:14.657Z,7.2
2022-12-25T14:57:24.916Z,7.2
2022-12-25T14:58:35.347Z,7.2
2022-12-25T14:59:45.757Z,7.2
2022-12-25T15:00:56.264Z,7.2
2022-12-25T15:02:06.614Z,7.2
2022-12-25T15:03:17.115Z,7.2
2022-12-25T15:04:27.491Z,7.2
2022-12-25T15:05:37.925Z,7.2
2022-12-25T15:06:48.342Z,7.2
2022-12-25T15:07:58.870Z,7.2
2022-12-25T15:09:09.270Z,7.2
2022-12-25T15:10:19.655Z,7.2
2022-12-25T15:11:30.094Z,7.2
2022-12-25T15:12:40.510Z,7.2
2022-12-25T15:15:20.231Z,7.2
2022-12-25T15:16:31.051Z,7.2
2022-12-25T15:17:45.164Z,7.2
2022-12-25T15:18:59.293Z,7.2
2022-12-25T15:20:13.514Z,7.2
2022-12-25T15:21:27.552Z,7.2
2022-12-25T15:22:41.091Z,7.2
2022-12-25T15:23:51.186Z,7.2
2022-12-25T15:25:01.367Z,7.2
2022-12-25T15:26:11.604Z,7.2
2022-12-25T15:27:21.743Z,7.1
2022-12-25T15:28:31.907Z,7.2
2022-12-25T15:29:42.007Z,7.2
2022-12-25T15:32:02.386Z,7.1
2022-12-25T15:33:12.568Z,7.1
2022-12-25T15:34:22.728Z,7.1
2022-12-25T15:35:32.827Z,7.1
2022-12-25T15:36:42.979Z,7.1
2022-12-25T15:37:53.141Z,7.1
2022-12-25T15:39:03.309Z,7.1
2022-12-25T15:40:13.496Z,7.1
2022-12-25T15:41:23.666Z,7.1
2022-12-25T15:42:33.808Z,7.1
2022-12-25T15:43:43.960Z,7.1
2022-12-25T15:44:54.194Z,7.2
2022-12-25T15:46:04.348Z,7.1
2022-12-25T15:47:14.634Z,7.1
2022-12-25T15:48:24.886Z,7.1
2022-12-25T15:49:34.840Z,7.1
2022-12-25T15:50:44.936Z,7.1
2022-12-25T15:51:55.244Z,7.1
2022-12-25T15:53:05.444Z,7.1
2022-12-25T15:54:15.741Z,7.1
2022-12-25T15:55:25.983Z,7.1
2022-12-25T15:56:36.222Z,7.1
2022-12-25T15:57:46.415Z,7.1
2022-12-25T15:58:56.682Z,7.1
2022-12-25T16:00:06.923Z,7.1
2022-12-25T16:01:17.164Z,7.1
2022-12-25T16:02:27.402Z,7.1
2022-12-25T16:03:37.723Z,7.1
2022-12-25T16:04:47.882Z,7.1
2022-12-25T16:05:58.199Z,7.1
2022-12-25T16:07:08.590Z,7.1
2022-12-25T16:08:19.093Z,7.1
2022-12-25T16:09:29.500Z,7.1
2022-12-25T16:10:39.882Z,7.1
2022-12-25T16:11:50.297Z,7.1
2022-12-25T16:13:00.804Z,7.1
2022-12-25T16:14:11.261Z,7.1
2022-12-25T16:15:21.663Z,7.1
2022-12-25T16:16:32.040Z,7.1
2022-12-25T16:17:42.446Z,7.1
2022-12-25T16:18:52.936Z,7.1
2022-12-25T16:20:03.322Z,7.1
2022-12-25T16:21:13.749Z,7.1
2022-12-25T16:23:52.180Z,7.1
2022-12-25T16:25:06.382Z,7.1
2022-12-25T16:26:20.400Z,7.1
2022-12-25T16:27:31.241Z,7.1
2022-12-25T16:28:41.977Z,7.1
2022-12-25T16:29:56.179Z,7.1
2022-12-25T16:31:10.313Z,7.1
2022-12-25T16:32:24.433Z,7
2022-12-25T16:33:37.851Z,7
2022-12-25T16:34:48.014Z,7
2022-12-25T16:35:58.226Z,7
2022-12-25T16:37:08.367Z,7
2022-12-25T16:38:18.604Z,7
2022-12-25T16:39:28.660Z,7
2022-12-25T16:40:38.850Z,7
2022-12-25T16:41:48.999Z,7
2022-12-25T16:42:59.238Z,7
2022-12-25T16:44:09.334Z,7
2022-12-25T16:45:19.548Z,7
2022-12-25T16:46:29.676Z,7
2022-12-25T16:47:39.823Z,7
2022-12-25T16:48:50.095Z,7
2022-12-25T16:50:00.134Z,7
2022-12-25T16:51:10.380Z,7
2022-12-25T16:52:20.541Z,6.9
2022-12-25T16:53:30.737Z,6.9
2022-12-25T16:54:40.834Z,6.9
2022-12-25T16:55:50.950Z,6.9
2022-12-25T16:57:01.123Z,6.9
2022-12-25T16:58:11.275Z,6.9
2022-12-25T16:59:21.468Z,6.9
2022-12-25T17:00:31.785Z,6.9
2022-12-25T17:01:41.767Z,6.9
2022-12-25T17:02:52.012Z,6.9